Time;durP1;ratioP1;P1;durP2;ratioP2;P2;SDS_P1;SDS_P2;PMS_P1;PMS_P2;Temp;Humidity;BMP_temperature;BMP_pressure;BME280_temperature;BME280_humidity;BME280_pressure;Samples;Min_cycle;Max_cycle;Signal;HPM_P1;HPM_P2
2021/06/21 00:00:00;;;;;;;;;;;;;;;-139.48;100.00;61774.03;5093526;28;20379;-69
2021/06/21 00:02:44;;;;;;;;;;;;;;;-139.48;100.00;61774.03;5093409;28;20019;-70
2021/06/21 00:05:28;;;;;;;;;;;;;;;-139.48;100.00;61774.03;5094295;28;19922;-70
2021/06/21 00:08:12;;;;;;;;;;;;;;;-139.48;100.00;61774.03;5093172;28;19919;-69
2021/06/21 00:10:56;;;;;;;;;;;;;;;-139.48;100.00;61774.03;5093328;28;19919;-70
2021/06/21 00:13:40;;;;;;;;;;;;;;;-139.48;100.00;61774.03;5093184;28;19966;-70
2021/06/21 00:16:24;;;;;;;;;;;;;;;-139.48;100.00;61774.03;5078718;28;19919;-70
2021/06/21 00:19:08;;;;;;;;;;;;;;;-139.48;100.00;61774.03;5092914;28;20289;-70
2021/06/21 00:21:52;;;;;;;;;;;;;;;-139.48;100.00;61774.03;5093443;28;19977;-69
2021/06/21 00:24:36;;;;;;;;;;;;;;;-139.48;100.00;61774.03;5093583;28;20399;-70
2021/06/21 00:27:20;;;;;;;;;;;;;;;-139.48;100.00;61774.03;5093190;28;19923;-70
2021/06/21 00:30:04;;;;;;;;;;;;;;;-139.48;100.00;61774.03;5093114;28;19934;-70
2021/06/21 00:32:48;;;;;;;;;;;;;;;-139.48;100.00;61774.03;5094057;28;19918;-69
2021/06/21 00:35:32;;;;;;;;;;;;;;;-139.48;100.00;61774.03;5078642;28;19958;-69
2021/06/21 00:38:16;;;;;;;;;;;;;;;-139.48;100.00;61774.03;5093053;28;20281;-70
2021/06/21 00:41:00;;;;;;;;;;;;;;;-139.48;100.00;61774.03;5078661;28;19919;-70
2021/06/21 00:43:44;;;;;;;;;;;;;;;-139.48;100.00;61774.03;5092848;28;20359;-70
2021/06/21 00:46:28;;;;;;;;;;;;;;;-139.48;100.00;61774.03;5092881;28;19993;-69
2021/06/21 00:49:12;;;;;;;;;;;;;;;-139.48;100.00;61774.03;5079309;28;19922;-70
2021/06/21 00:51:57;;;;;;;;;;;;;;;-139.48;100.00;61774.03;5097103;28;20007;-70
2021/06/21 00:54:40;;;;;;;;;;;;;;;-139.48;100.00;61774.03;5097004;28;19919;-70
2021/06/21 00:57:26;;;;;;;;;;;;;;;-139.48;100.00;61774.03;5096905;28;19980;-70
2021/06/21 01:00:10;;;;;;;;;;;;;;;-139.48;100.00;61774.03;5097948;28;19918;-70
2021/06/21 01:02:54;;;;;;;;;;;;;;;-139.48;100.00;61774.03;5096513;28;19919;-70
2021/06/21 01:05:39;;;;;;;;;;;;;;;-139.48;100.00;61774.03;5097471;28;19964;-70
2021/06/21 01:08:23;;;;;;;;;;;;;;;-139.48;100.00;61774.03;5097480;28;20012;-70
2021/06/21 01:11:07;;;;;;;;;;;;;;;-139.48;100.00;61774.03;5097332;28;20378;-70
2021/06/21 01:14:01;;;;;;;;;;;;;;;-139.48;100.00;61774.03;5097448;28;19919;-70
2021/06/21 01:16:49;;;;;;;;;;;;;;;-139.48;100.00;61774.03;5096430;28;19919;-70
2021/06/21 01:19:52;;;;;;;;;;;;;;;-139.48;100.00;61774.03;5096458;28;19935;-70
2021/06/21 01:22:48;;;;;;;;;;;;;;;-139.48;100.00;61774.03;5097492;28;20331;-70
2021/06/21 01:25:35;;;;;;;;;;;;;;;-139.48;100.00;61774.03;5097381;28;20395;-69
2021/06/21 01:28:38;;;;;;;;;;;;;;;-139.48;100.00;61774.03;5096419;28;19958;-70
2021/06/21 01:31:23;;;;;;;;;;;;;;;-139.48;100.00;61774.03;5097138;28;20009;-70
2021/06/21 01:34:07;;;;;;;;;;;;;;;-139.48;100.00;61774.03;5096414;28;19919;-69
2021/06/21 01:36:52;;;;;;;;;;;;;;;-139.48;100.00;61774.03;5095989;28;19923;-69
2021/06/21 01:39:36;;;;;;;;;;;;;;;-139.48;100.00;61774.03;5096879;28;19958;-70
2021/06/21 01:42:21;;;;;;;;;;;;;;;-139.48;100.00;61774.03;5097154;28;19961;-69
2021/06/21 01:45:08;;;;;;;;;;;;;;;-139.48;100.00;61774.03;5095878;28;19935;-70
2021/06/21 01:47:53;;;;;;;;;;;;;;;-139.48;100.00;61774.03;5096898;28;19922;-70
2021/06/21 01:50:36;;;;;;;;;;;;;;;-139.48;100.00;61774.03;5096617;28;20391;-70
2021/06/21 01:53:20;;;;;;;;;;;;;;;-139.48;100.00;61774.03;5095810;28;19919;-69
2021/06/21 01:56:06;;;;;;;;;;;;;;;-139.48;100.00;61774.03;5081419;28;20376;-68
2021/06/21 01:58:50;;;;;;;;;;;;;;;-139.48;100.00;61774.03;5095624;28;20440;-69
2021/06/21 02:01:34;;;;;;;;;;;;;;;-139.48;100.00;61774.03;5094651;28;19919;-68
2021/06/21 02:04:18;;;;;;;;;;;;;;;-139.48;100.00;61774.03;5081039;28;19919;-70
2021/06/21 02:07:02;;;;;;;;;;;;;;;-139.48;100.00;61774.03;5096051;28;19927;-70
2021/06/21 02:09:46;;;;;;;;;;;;;;;-139.48;100.00;61774.03;5095675;28;19919;-68
2021/06/21 02:12:30;;;;;;;;;;;;;;;-139.48;100.00;61774.03;5096552;28;19969;-70
2021/06/21 02:15:14;;;;;;;;;;;;;;;-139.48;100.00;61774.03;5095162;28;19976;-70
2021/06/21 02:17:57;;;;;;;;;;;;;;;-139.48;100.00;61774.03;5096745;28;19958;-70
2021/06/21 02:20:41;;;;;;;;;;;;;;;-139.48;100.00;61774.03;5095467;28;19953;-70
2021/06/21 02:23:25;;;;;;;;;;;;;;;-139.48;100.00;61774.03;5094921;28;19918;-70
2021/06/21 02:26:09;;;;;;;;;;;;;;;-139.48;100.00;61774.03;5095969;28;19918;-70
2021/06/21 02:28:54;;;;;;;;;;;;;;;-139.48;100.00;61774.03;5095359;28;20338;-70
2021/06/21 02:31:38;;;;;;;;;;;;;;;-139.48;100.00;61774.03;5095204;28;19935;-70
2021/06/21 02:34:22;;;;;;;;;;;;;;;-139.48;100.00;61774.03;5095837;28;20461;-70
2021/06/21 02:37:05;;;;;;;;;;;;;;;-139.48;100.00;61774.03;5095025;28;20391;-70
2021/06/21 02:39:49;;;;;;;;;;;;;;;-139.48;100.00;61774.03;5095837;28;19919;-69
2021/06/21 02:42:33;;;;;;;;;;;;;;;-139.48;100.00;61774.03;5094591;28;19919;-70
2021/06/21 02:45:17;;;;;;;;;;;;;;;-139.48;100.00;61774.03;5094804;28;19972;-70
2021/06/21 02:48:02;;;;;;;;;;;;;;;-139.48;100.00;61774.03;5095516;28;19918;-70
2021/06/21 02:50:48;;;;;;;;;;;;;;;-139.48;100.00;61774.03;5095799;28;19993;-70
2021/06/21 02:53:32;;;;;;;;;;;;;;;-139.48;100.00;61774.03;5095497;28;19923;-70
2021/06/21 02:56:15;;;;;;;;;;;;;;;-139.48;100.00;61774.03;5095559;28;19962;-69
2021/06/21 02:59:01;;;;;;;;;;;;;;;-139.48;100.00;61774.03;5095357;28;20387;-70
2021/06/21 03:01:46;;;;;;;;;;;;;;;-139.48;100.00;61774.03;5094519;28;19919;-70
2021/06/21 03:04:30;;;;;;;;;;;;;;;-139.48;100.00;61774.03;5094577;28;19918;-70
2021/06/21 03:07:15;;;;;;;;;;;;;;;-139.48;100.00;61774.03;5094465;28;19937;-70
2021/06/21 03:09:59;;;;;;;;;;;;;;;-139.48;100.00;61774.03;5094681;28;19918;-70
2021/06/21 03:12:44;;;;;;;;;;;;;;;-139.48;100.00;61774.03;5094300;28;20049;-67
2021/06/21 03:15:28;;;;;;;;;;;;;;;-139.48;100.00;61774.03;5094395;28;19919;-70
2021/06/21 03:18:12;;;;;;;;;;;;;;;-139.48;100.00;61774.03;5094213;28;19965;-70
2021/06/21 03:20:59;;;;;;;;;;;;;;;-139.48;100.00;61774.03;5093902;28;20284;-70
2021/06/21 03:23:43;;;;;;;;;;;;;;;-139.48;100.00;61774.03;5117925;22;19942;-66
2021/06/21 03:26:28;;;;;;;;;;;;;;;-139.48;100.00;61774.03;5073631;28;19973;-66
2021/06/21 03:29:15;;;;;;;;;;;;;;;-139.48;100.00;61774.03;5074367;28;20335;-65
2021/06/21 03:32:04;;;;;;;;;;;;;;;-139.48;100.00;61774.03;5073294;28;20007;-66
2021/06/21 03:34:48;;;;;;;;;;;;;;;-139.48;100.00;61774.03;5067462;28;19920;-65
2021/06/21 03:37:32;;;;;;;;;;;;;;;-139.48;100.00;61774.03;5054500;28;19973;-64
2021/06/21 03:40:16;;;;;;;;;;;;;;;-139.48;100.00;61774.03;5054158;28;20062;-65
2021/06/21 03:43:00;;;;;;;;;;;;;;;-139.48;100.00;61774.03;5053143;28;19919;-66
2021/06/21 03:45:46;;;;;;;;;;;;;;;-139.48;100.00;61774.03;5052955;28;19961;-65
2021/06/21 03:48:30;;;;;;;;;;;;;;;-139.48;100.00;61774.03;5067103;28;19967;-65
2021/06/21 03:51:14;;;;;;;;;;;;;;;-139.48;100.00;61774.03;5054273;28;19920;-65
2021/06/21 03:53:58;;;;;;;;;;;;;;;-139.48;100.00;61774.03;5052973;28;19921;-65
2021/06/21 03:56:41;;;;;;;;;;;;;;;-139.48;100.00;61774.03;5054172;28;19919;-65
2021/06/21 03:59:26;;;;;;;;;;;;;;;-139.48;100.00;61774.03;5053187;28;19920;-66
2021/06/21 04:02:09;;;;;;;;;;;;;;;-139.48;100.00;61774.03;5052975;28;19935;-65
2021/06/21 04:04:53;;;;;;;;;;;;;;;-139.48;100.00;61774.03;5052867;28;20380;-65
2021/06/21 04:07:37;;;;;;;;;;;;;;;-139.48;100.00;61774.03;5054035;28;20423;-64
2021/06/21 04:10:22;;;;;;;;;;;;;;;-139.48;100.00;61774.03;5067017;28;19982;-65
2021/06/21 04:13:07;;;;;;;;;;;;;;;-139.48;100.00;61774.03;5053637;28;19939;-65
2021/06/21 04:15:50;;;;;;;;;;;;;;;-139.48;100.00;61774.03;5066722;28;19963;-65
2021/06/21 04:18:34;;;;;;;;;;;;;;;-139.48;100.00;61774.03;5053902;28;19963;-65
2021/06/21 04:21:20;;;;;;;;;;;;;;;-139.48;100.00;61774.03;5053926;28;19963;-66
2021/06/21 04:24:04;;;;;;;;;;;;;;;-139.48;100.00;61774.03;5051912;28;19970;-65
2021/06/21 04:26:48;;;;;;;;;;;;;;;-139.48;100.00;61774.03;5066568;28;19924;-66
2021/06/21 04:29:32;;;;;;;;;;;;;;;-139.48;100.00;61774.03;5052491;28;19942;-65
2021/06/21 04:32:16;;;;;;;;;;;;;;;-139.48;100.00;61774.03;5052715;28;19938;-66
2021/06/21 04:35:00;;;;;;;;;;;;;;;-139.48;100.00;61774.03;5052379;28;19920;-65
2021/06/21 04:37:44;;;;;;;;;;;;;;;-139.48;100.00;61774.03;5052742;28;20013;-65
2021/06/21 04:40:29;;;;;;;;;;;;;;;-139.48;100.00;61774.03;5053969;28;19920;-65
2021/06/21 04:43:13;;;;;;;;;;;;;;;-139.48;100.00;61774.03;5052392;28;19966;-66
2021/06/21 04:45:56;;;;;;;;;;;;;;;-139.48;100.00;61774.03;5053205;28;19986;-65
2021/06/21 04:48:41;;;;;;;;;;;;;;;-139.48;100.00;61774.03;5053607;28;20272;-66
2021/06/21 04:51:25;;;;;;;;;;;;;;;-139.48;100.00;61774.03;5053646;28;19919;-66
2021/06/21 04:54:09;;;;;;;;;;;;;;;-139.48;100.00;61774.03;5052478;28;20007;-65
2021/06/21 04:56:52;;;;;;;;;;;;;;;-139.48;100.00;61774.03;5052246;28;19920;-66
2021/06/21 04:59:36;;;;;;;;;;;;;;;-139.48;100.00;61774.03;5053154;28;19923;-66
2021/06/21 05:02:20;;;;;;;;;;;;;;;-139.48;100.00;61774.03;5053491;28;20377;-66
2021/06/21 05:05:04;;;;;;;;;;;;;;;-139.48;100.00;61774.03;5053303;28;20012;-66
2021/06/21 05:07:49;;;;;;;;;;;;;;;-139.48;100.00;61774.03;5066576;28;19995;-65
2021/06/21 05:10:32;;;;;;;;;;;;;;;-139.48;100.00;61774.03;5066226;28;19919;-64
2021/06/21 05:13:16;;;;;;;;;;;;;;;-139.48;100.00;61774.03;5052675;28;19978;-66
2021/06/21 05:16:00;;;;;;;;;;;;;;;-139.48;100.00;61774.03;5053009;28;19920;-66
2021/06/21 05:18:44;;;;;;;;;;;;;;;-139.48;100.00;61774.03;5066393;28;19920;-66
2021/06/21 05:21:28;;;;;;;;;;;;;;;-139.48;100.00;61774.03;5066417;28;19942;-66
2021/06/21 05:24:12;;;;;;;;;;;;;;;-139.48;100.00;61774.03;5053275;28;19948;-66
2021/06/21 05:26:56;;;;;;;;;;;;;;;-139.48;100.00;61774.03;5065995;28;19927;-66
2021/06/21 05:29:40;;;;;;;;;;;;;;;-139.48;100.00;61774.03;5052160;28;19982;-66
2021/06/21 05:32:24;;;;;;;;;;;;;;;-139.48;100.00;61774.03;5051999;28;19936;-66
2021/06/21 05:35:09;;;;;;;;;;;;;;;-139.48;100.00;61774.03;5051964;28;19920;-66
2021/06/21 05:37:54;;;;;;;;;;;;;;;-139.48;100.00;61774.03;5055486;28;20400;-66
2021/06/21 05:40:37;;;;;;;;;;;;;;;-139.48;100.00;61774.03;5056512;28;20372;-66
2021/06/21 05:43:21;;;;;;;;;;;;;;;-139.48;100.00;61774.03;5055701;28;20415;-66
2021/06/21 05:46:05;;;;;;;;;;;;;;;-139.48;100.00;61774.03;5056179;28;19923;-66
2021/06/21 05:48:49;;;;;;;;;;;;;;;-139.48;100.00;61774.03;5055596;28;19919;-65
2021/06/21 05:51:33;;;;;;;;;;;;;;;-139.48;100.00;61774.03;5055237;28;20007;-66
2021/06/21 05:54:17;;;;;;;;;;;;;;;-139.48;100.00;61774.03;5055214;28;19920;-66
2021/06/21 05:57:01;;;;;;;;;;;;;;;-139.48;100.00;61774.03;5055730;28;19919;-67
2021/06/21 05:59:45;;;;;;;;;;;;;;;-139.48;100.00;61774.03;5056374;28;19920;-66
2021/06/21 06:02:29;;;;;;;;;;;;;;;-139.48;100.00;61774.03;5056103;28;20336;-66
2021/06/21 06:05:13;;;;;;;;;;;;;;;-139.48;100.00;61774.03;5054936;28;19919;-66
2021/06/21 06:07:57;;;;;;;;;;;;;;;-139.48;100.00;61774.03;5055535;28;19920;-66
2021/06/21 06:10:41;;;;;;;;;;;;;;;-139.48;100.00;61774.03;5054866;28;19999;-66
2021/06/21 06:13:25;;;;;;;;;;;;;;;-139.48;100.00;61774.03;5055064;28;19920;-66
2021/06/21 06:16:09;;;;;;;;;;;;;;;-139.48;100.00;61774.03;5054811;28;19962;-66
2021/06/21 06:18:53;;;;;;;;;;;;;;;-139.48;100.00;61774.03;5055741;28;19958;-66
2021/06/21 06:21:37;;;;;;;;;;;;;;;-139.48;100.00;61774.03;5055689;28;19959;-66
2021/06/21 06:24:21;;;;;;;;;;;;;;;-139.48;100.00;61774.03;5054565;28;19963;-66
2021/06/21 06:27:05;;;;;;;;;;;;;;;-139.48;100.00;61774.03;5054596;28;19959;-65
2021/06/21 06:29:49;;;;;;;;;;;;;;;-139.48;100.00;61774.03;5054548;28;19962;-66
2021/06/21 06:32:36;;;;;;;;;;;;;;;-139.48;100.00;61774.03;5054821;28;20083;-67
2021/06/21 06:35:19;;;;;;;;;;;;;;;-139.48;100.00;61774.03;5055321;28;19923;-66
2021/06/21 06:38:04;;;;;;;;;;;;;;;-139.48;100.00;61774.03;5054518;28;19919;-66
2021/06/21 06:40:47;;;;;;;;;;;;;;;-139.48;100.00;61774.03;5055885;28;20288;-66
2021/06/21 06:43:31;;;;;;;;;;;;;;;-139.48;100.00;61774.03;5055546;28;19920;-66
2021/06/21 06:46:15;;;;;;;;;;;;;;;-139.48;100.00;61774.03;5055189;28;19924;-66
2021/06/21 06:48:59;;;;;;;;;;;;;;;-139.48;100.00;61774.03;5054123;28;19927;-66
2021/06/21 06:51:49;;;;;;;;;;;;;;;-139.48;100.00;61774.03;5054406;28;20274;-66
2021/06/21 06:57:30;;;;;;;;;;;;;;;-139.48;100.00;61774.03;5054703;28;19919;-66
2021/06/21 07:00:14;;;;;;;;;;;;;;;-139.48;100.00;61774.03;5055219;28;19920;-66
2021/06/21 07:02:58;;;;;;;;;;;;;;;-139.48;100.00;61774.03;5068182;28;19920;-66
2021/06/21 07:05:43;;;;;;;;;;;;;;;-139.48;100.00;61774.03;5053732;28;19990;-66
2021/06/21 07:08:27;;;;;;;;;;;;;;;-139.48;100.00;61774.03;5054104;28;20011;-66
2021/06/21 07:11:14;;;;;;;;;;;;;;;-139.48;100.00;61774.03;5054749;28;20388;-66
2021/06/21 07:13:58;;;;;;;;;;;;;;;-139.48;100.00;61774.03;5053975;28;19934;-66
2021/06/21 07:16:42;;;;;;;;;;;;;;;-139.48;100.00;61774.03;5053966;28;20301;-66
2021/06/21 07:19:26;;;;;;;;;;;;;;;-139.48;100.00;61774.03;5054888;28;19970;-66
2021/06/21 07:22:10;;;;;;;;;;;;;;;-139.48;100.00;61774.03;5053583;28;19966;-66
2021/06/21 07:24:54;;;;;;;;;;;;;;;-139.48;100.00;61774.03;5067440;28;19919;-66
2021/06/21 07:27:38;;;;;;;;;;;;;;;-139.48;100.00;61774.03;5053979;28;19939;-66
2021/06/21 07:30:22;;;;;;;;;;;;;;;-139.48;100.00;61774.03;5053311;28;19963;-67
2021/06/21 07:33:06;;;;;;;;;;;;;;;-139.48;100.00;61774.03;5054347;28;20464;-66
2021/06/21 07:35:50;;;;;;;;;;;;;;;-139.48;100.00;61774.03;5054751;28;19919;-67
2021/06/21 07:38:34;;;;;;;;;;;;;;;-139.48;100.00;61774.03;5053363;28;19969;-67
2021/06/21 07:41:18;;;;;;;;;;;;;;;-139.48;100.00;61774.03;5054182;28;19935;-67
2021/06/21 07:44:03;;;;;;;;;;;;;;;-139.48;100.00;61774.03;5053367;28;19919;-67
2021/06/21 07:46:48;;;;;;;;;;;;;;;-139.48;100.00;61774.03;5053460;28;19970;-67
2021/06/21 07:49:31;;;;;;;;;;;;;;;-139.48;100.00;61774.03;5054022;28;20065;-67
2021/06/21 07:52:15;;;;;;;;;;;;;;;-139.48;100.00;61774.03;5053283;28;20289;-67
2021/06/21 07:54:59;;;;;;;;;;;;;;;-139.48;100.00;61774.03;5053142;28;20285;-67
2021/06/21 07:57:43;;;;;;;;;;;;;;;-139.48;100.00;61774.03;5054095;28;19920;-66
2021/06/21 08:00:27;;;;;;;;;;;;;;;-139.48;100.00;61774.03;5052847;28;19965;-67
2021/06/21 08:03:11;;;;;;;;;;;;;;;-139.48;100.00;61774.03;5053107;28;20008;-67
2021/06/21 08:05:55;;;;;;;;;;;;;;;-139.48;100.00;61774.03;5052612;28;20012;-67
2021/06/21 08:08:40;;;;;;;;;;;;;;;-139.48;100.00;61774.03;5053947;28;20024;-67
2021/06/21 08:11:24;;;;;;;;;;;;;;;-139.48;100.00;61774.03;5052901;28;19962;-67
2021/06/21 08:14:07;;;;;;;;;;;;;;;-139.48;100.00;61774.03;5052452;28;19920;-65
2021/06/21 08:16:51;;;;;;;;;;;;;;;-139.48;100.00;61774.03;5053553;28;19919;-67
2021/06/21 08:19:35;;;;;;;;;;;;;;;-139.48;100.00;61774.03;5053165;28;20392;-67
2021/06/21 08:22:22;;;;;;;;;;;;;;;-139.48;100.00;61774.03;5052644;28;19919;-65
2021/06/21 08:25:06;;;;;;;;;;;;;;;-139.48;100.00;61774.03;5052785;28;19971;-67
2021/06/21 08:27:50;;;;;;;;;;;;;;;-139.48;100.00;61774.03;5066923;28;19924;-67
2021/06/21 08:30:34;;;;;;;;;;;;;;;-139.48;100.00;61774.03;5053727;28;19920;-65
2021/06/21 08:33:18;;;;;;;;;;;;;;;-139.48;100.00;61774.03;5052436;28;20380;-67
2021/06/21 08:36:02;;;;;;;;;;;;;;;-139.48;100.00;61774.03;5053633;28;19920;-67
2021/06/21 08:38:46;;;;;;;;;;;;;;;-139.48;100.00;61774.03;5053946;28;20042;-67
2021/06/21 08:41:30;;;;;;;;;;;;;;;-139.48;100.00;61774.03;5066705;28;20007;-67
2021/06/21 08:44:14;;;;;;;;;;;;;;;-139.48;100.00;61774.03;5052271;28;19999;-67
2021/06/21 08:46:58;;;;;;;;;;;;;;;-139.48;100.00;61774.03;5052451;28;19924;-67
2021/06/21 08:49:45;;;;;;;;;;;;;;;-139.48;100.00;61774.03;5052166;28;19920;-67
2021/06/21 08:52:29;;;;;;;;;;;;;;;-139.48;100.00;61774.03;5052477;28;19935;-67
2021/06/21 08:55:13;;;;;;;;;;;;;;;-139.48;100.00;61774.03;5053272;28;19920;-67
2021/06/21 08:57:57;;;;;;;;;;;;;;;-139.48;100.00;61774.03;5053163;28;19920;-67
2021/06/21 09:00:41;;;;;;;;;;;;;;;-139.48;100.00;61774.03;5066597;28;19935;-67
2021/06/21 09:03:25;;;;;;;;;;;;;;;-139.48;100.00;61774.03;5052778;28;19923;-67
2021/06/21 09:06:19;;;;;;;;;;;;;;;-139.48;100.00;61774.03;5052098;28;19923;-67
2021/06/21 09:09:03;;;;;;;;;;;;;;;-139.48;100.00;61774.03;5052406;28;19919;-67
2021/06/21 09:11:47;;;;;;;;;;;;;;;-139.48;100.00;61774.03;5055215;28;19965;-66
2021/06/21 09:14:32;;;;;;;;;;;;;;;-139.48;100.00;61774.03;5057167;28;19919;-66
2021/06/21 09:17:20;;;;;;;;;;;;;;;22.90;70.75;100908.66;5056174;28;19919;-67
2021/06/21 09:20:09;;;;;;;;;;;;;;;23.74;66.31;99681.97;5070123;28;19920;-67
2021/06/21 09:22:56;;;;;;;;;;;;;;;23.62;67.86;99671.13;5056210;28;20380;-65
2021/06/21 09:25:42;;;;;;;;;;;;;;;23.61;68.71;99683.09;5056914;28;19928;-67
2021/06/21 09:28:34;;;;;;;;;;;;;;;23.69;67.11;99669.09;5056753;28;20321;-67
2021/06/21 09:31:19;;;;;;;;;;;;;;;24.02;66.90;99671.94;5056932;28;19919;-66
2021/06/21 09:34:16;;;;;;;;;;;;;;;24.10;65.49;99677.78;5056545;28;19920;-67
2021/06/21 09:37:08;;;;;;;;;;;;;;;24.23;66.80;99682.09;5055496;28;20012;-67
2021/06/21 09:39:52;;;;;;;;;;;;;;;24.56;65.58;99679.44;5055980;28;19962;-67
2021/06/21 09:42:36;;;;;;;;;;;;;;;24.43;63.30;99677.84;5056614;28;19986;-67
2021/06/21 09:45:20;;;;;;;;;;;;;;;24.66;63.45;99676.88;5055481;28;19939;-66
2021/06/21 09:48:04;;;;;;;;;;;;;;;24.89;64.58;99687.59;5055569;28;19966;-67
2021/06/21 09:50:48;;;;;;;;;;;;;;;24.94;64.21;99684.94;5069662;28;19920;-67
2021/06/21 09:53:32;;;;;;;;;;;;;;;24.93;59.29;99684.09;5056271;28;20003;-67
2021/06/21 09:56:28;;;;;;;;;;;;;;;25.37;57.37;99682.28;5055306;28;19920;-67
2021/06/21 09:59:20;;;;;;;;;;;;;;;-139.48;100.00;61774.03;5056506;28;19983;-66
2021/06/21 10:02:14;;;;;;;;;;;;;;;-139.48;100.00;61774.03;5056261;28;19920;-67
2021/06/21 10:04:58;;;;;;;;;;;;;;;-139.48;100.00;61774.03;5055197;28;19959;-67
2021/06/21 10:07:43;;;;;;;;;;;;;;;-139.48;100.00;61774.03;5055180;28;19941;-67
2021/06/21 10:10:27;;;;;;;;;;;;;;;-139.48;100.00;61774.03;5055117;28;19923;-67
2021/06/21 10:13:12;;;;;;;;;;;;;;;-139.48;100.00;61774.03;5055006;28;20387;-67
2021/06/21 10:15:55;;;;;;;;;;;;;;;-139.48;100.00;61774.03;5056073;28;19920;-67
2021/06/21 10:18:39;;;;;;;;;;;;;;;-139.48;100.00;61774.03;5069048;28;19967;-67
2021/06/21 10:21:24;;;;;;;;;;;;;;;-139.48;100.00;61774.03;5055212;28;19919;-67
2021/06/21 10:24:08;;;;;;;;;;;;;;;25.41;57.38;99665.16;5054330;28;20356;-66
2021/06/21 10:26:52;;;;;;;;;;;;;;;27.71;49.42;99694.47;5055669;28;20423;-67
2021/06/21 10:29:36;;;;;;;;;;;;;;;27.97;49.56;99697.03;5054899;28;19966;-67
2021/06/21 10:32:20;;;;;;;;;;;;;;;27.79;47.88;99691.22;5054858;28;19923;-66
2021/06/21 10:35:05;;;;;;;;;;;;;;;28.68;46.59;99700.72;5055421;28;19963;-67
2021/06/21 10:37:53;;;;;;;;;;;;;;;29.88;43.44;99679.25;5054720;28;19981;-67
2021/06/21 10:41:01;;;;;;;;;;;;;;;30.77;41.53;99699.03;5055753;28;19923;-67
2021/06/21 10:43:47;;;;;;;;;;;;;;;32.41;36.94;99693.50;5054867;28;19970;-67
2021/06/21 10:46:32;;;;;;;;;;;;;;;31.07;40.43;99683.06;5054486;28;19966;-67
2021/06/21 10:49:19;;;;;;;;;;;;;;;30.94;40.63;99682.91;5054305;28;20439;-68
2021/06/21 10:52:23;;;;;;;;;;;;;;;30.67;40.55;99688.13;5055401;28;19919;-67
2021/06/21 10:58:06;;;;;;;;;;;;;;;32.40;38.90;99680.81;5055409;28;19923;-67
2021/06/21 11:00:51;;;;;;;;;;;;;;;33.08;35.84;99682.69;5055536;28;19967;-67
2021/06/21 11:03:35;;;;;;;;;;;;;;;34.68;33.23;99676.41;5054208;28;19919;-68
2021/06/21 11:06:22;;;;;;;;;;;;;;;34.70;33.73;99665.91;5054959;28;19924;-68
2021/06/21 11:09:06;;;;;;;;;;;;;;;35.42;32.96;99661.72;5067925;28;19920;-68
2021/06/21 11:11:51;;;;;;;;;;;;;;;35.91;32.25;99666.13;5055043;28;20280;-68
2021/06/21 11:14:35;;;;;;;;;;;;;;;35.64;30.23;99669.94;5054978;28;20332;-67
2021/06/21 11:17:20;;;;;;;;;;;;;;;35.78;30.08;99675.41;5053996;28;19920;-67
2021/06/21 11:20:22;;;;;;;;;;;;;;;35.82;29.05;99677.19;5053920;28;19920;-67
2021/06/21 11:23:10;;;;;;;;;;;;;;;35.16;30.65;99669.06;5054572;28;20388;-67
2021/06/21 11:25:53;;;;;;;;;;;;;;;34.91;31.30;99678.09;5053251;28;20464;-65
2021/06/21 11:28:41;;;;;;;;;;;;;;;34.69;32.72;99669.75;5054698;28;19923;-67
2021/06/21 11:31:26;;;;;;;;;;;;;;;34.27;32.83;99675.78;5053440;28;19919;-67
2021/06/21 11:34:10;;;;;;;;;;;;;;;34.34;32.80;99667.88;5052265;28;19959;-66
2021/06/21 11:36:54;;;;;;;;;;;;;;;33.93;34.43;99674.63;5053251;28;19920;-66
2021/06/21 11:39:38;;;;;;;;;;;;;;;33.70;35.25;99673.72;5053514;28;19920;-67
2021/06/21 11:42:25;;;;;;;;;;;;;;;34.03;33.69;99672.44;5053484;28;19920;-67
2021/06/21 11:45:09;;;;;;;;;;;;;;;34.55;33.93;99669.00;5053432;28;19920;-66
2021/06/21 11:47:52;;;;;;;;;;;;;;;36.19;31.72;99664.72;5053602;28;20019;-67
2021/06/21 11:50:36;;;;;;;;;;;;;;;35.67;29.13;99657.41;5053387;28;20277;-67
2021/06/21 11:53:22;;;;;;;;;;;;;;;34.34;32.01;99667.88;5053986;28;19974;-66
2021/06/21 11:56:05;;;;;;;;;;;;;;;34.10;33.38;99658.19;5053309;28;19935;-66
2021/06/21 11:58:50;;;;;;;;;;;;;;;34.35;33.17;99669.50;5054367;28;19919;-66
2021/06/21 12:01:34;;;;;;;;;;;;;;;35.12;32.03;99658.94;5053392;28;19919;-66
2021/06/21 12:04:25;;;;;;;;;;;;;;;36.32;30.18;99658.97;5053783;28;19973;-67
2021/06/21 12:07:09;;;;;;;;;;;;;;;37.31;27.54;99665.84;5052690;28;19970;-66
2021/06/21 12:09:53;;;;;;;;;;;;;;;36.46;27.60;99666.00;5052736;28;19920;-67
2021/06/21 12:12:37;;;;;;;;;;;;;;;34.85;29.48;99673.81;5052790;28;19923;-67
2021/06/21 12:15:27;;;;;;;;;;;;;;;35.13;29.52;99663.34;5052629;28;19958;-66
2021/06/21 12:18:11;;;;;;;;;;;;;;;35.24;29.88;99671.09;5053901;28;20495;-67
2021/06/21 12:20:55;;;;;;;;;;;;;;;35.45;30.03;99650.00;5053665;28;20376;-67
2021/06/21 12:23:39;;;;;;;;;;;;;;;35.23;29.60;99666.69;5052966;28;19980;-66
2021/06/21 12:26:23;;;;;;;;;;;;;;;35.88;28.16;99664.78;5052682;28;19940;-67
2021/06/21 12:29:20;;;;;;;;;;;;;;;35.27;30.01;99670.47;5066679;28;20358;-67
2021/06/21 12:32:04;;;;;;;;;;;;;;;35.61;29.02;99658.69;5053765;28;19978;-67
2021/06/21 12:34:51;;;;;;;;;;;;;;;36.11;28.08;99646.84;5067065;28;19935;-67
2021/06/21 12:37:36;;;;;;;;;;;;;;;36.99;26.70;99654.47;5053387;28;20277;-66
2021/06/21 12:40:22;;;;;;;;;;;;;;;35.24;28.43;99654.47;5052182;28;19989;-66
2021/06/21 12:43:08;;;;;;;;;;;;;;;34.67;29.11;99644.34;5052465;28;19970;-66
2021/06/21 12:45:52;;;;;;;;;;;;;;;36.07;28.39;99640.34;5054171;28;19939;-67
2021/06/21 12:48:40;;;;;;;;;;;;;;;35.30;28.35;99644.06;5057806;28;19920;-67
2021/06/21 12:51:24;;;;;;;;;;;;;;;34.76;28.83;99653.53;5056667;28;20003;-67
2021/06/21 12:54:08;;;;;;;;;;;;;;;35.82;28.35;99649.44;5056478;28;19920;-66
2021/06/21 12:56:53;;;;;;;;;;;;;;;34.15;29.22;99658.88;5056964;28;19963;-67
2021/06/21 12:59:41;;;;;;;;;;;;;;;33.93;28.82;99658.84;5056264;28;19978;-67
2021/06/21 13:02:25;;;;;;;;;;;;;;;34.81;28.64;99650.66;5057432;28;20376;-66
2021/06/21 13:05:10;;;;;;;;;;;;;;;35.15;28.15;99652.75;5057094;28;19935;-67
2021/06/21 13:07:54;;;;;;;;;;;;;;;36.79;27.59;99652.41;5057634;28;20009;-67
2021/06/21 13:10:38;;;;;;;;;;;;;;;35.55;26.62;99663.56;5057309;28;19936;-67
2021/06/21 13:13:32;;;;;;;;;;;;;;;35.64;24.98;99664.41;5070355;28;20290;-66
2021/06/21 13:16:18;;;;;;;;;;;;;;;36.71;25.20;99653.25;5057253;28;19951;-67
2021/06/21 13:19:05;;;;;;;;;;;;;;;36.90;25.99;99659.25;5056506;28;20013;-67
2021/06/21 13:21:51;;;;;;;;;;;;;;;37.92;25.29;99648.50;5055884;28;19919;-67
2021/06/21 13:24:39;;;;;;;;;;;;;;;38.31;23.69;99650.03;5055702;28;19919;-67
2021/06/21 13:27:23;;;;;;;;;;;;;;;36.65;24.56;99654.59;5057016;28;19967;-67
2021/06/21 13:30:07;;;;;;;;;;;;;;;34.86;27.83;99647.75;5055879;28;19962;-67
2021/06/21 13:32:51;;;;;;;;;;;;;;;35.59;26.92;99647.91;5056931;28;20332;-66
2021/06/21 13:35:38;;;;;;;;;;;;;;;34.41;27.89;99651.66;5055553;28;19919;-67
2021/06/21 13:38:23;;;;;;;;;;;;;;;35.26;27.90;99649.44;5055898;28;19936;-67
2021/06/21 13:41:23;;;;;;;;;;;;;;;36.00;27.53;99645.53;5070176;28;19923;-65
2021/06/21 13:44:10;;;;;;;;;;;;;;;37.14;25.78;99648.41;5055540;28;19967;-65
2021/06/21 13:46:55;;;;;;;;;;;;;;;37.32;25.28;99644.41;5055513;28;19938;-67
2021/06/21 13:49:56;;;;;;;;;;;;;;;37.09;25.14;99645.81;5056577;28;20269;-67
2021/06/21 13:52:41;;;;;;;;;;;;;;;36.83;26.00;99631.16;5056928;28;19920;-66
2021/06/21 13:55:37;;;;;;;;;;;;;;;36.60;26.08;99641.69;5056228;28;19920;-67
2021/06/21 13:58:30;;;;;;;;;;;;;;;35.43;28.36;99635.63;5054021;28;20022;-66
2021/06/21 14:01:18;;;;;;;;;;;;;;;35.17;28.56;99634.69;5055749;28;19920;-66